sensor_id;sensor_type;location;lat;lon;timestamp;pressure;altitude;pressure_sealevel;temperature;humidity
60487;BME280;46327;39.866;-0.072;2022-12-07T00:01:39;101630.69;;;19.36;53.84
60487;BME280;46327;39.866;-0.072;2022-12-07T00:04:10;101625.98;;;19.10;53.83
60487;BME280;46327;39.866;-0.072;2022-12-07T00:06:38;101621.85;;;19.05;53.89
60487;BME280;46327;39.866;-0.072;2022-12-07T00:09:08;101620.11;;;19.29;53.94
60487;BME280;46327;39.866;-0.072;2022-12-07T00:11:36;101616.41;;;19.36;53.78
60487;BME280;46327;39.866;-0.072;2022-12-07T00:14:06;101611.87;;;19.11;53.71
60487;BME280;46327;39.866;-0.072;2022-12-07T00:16:35;101608.63;;;19.06;53.79
60487;BME280;46327;39.866;-0.072;2022-12-07T00:19:03;101603.75;;;19.40;53.62
60487;BME280;46327;39.866;-0.072;2022-12-07T00:21:33;101601.23;;;19.40;53.62
60487;BME280;46327;39.866;-0.072;2022-12-07T00:24:02;101598.33;;;19.34;53.70
60487;BME280;46327;39.866;-0.072;2022-12-07T00:26:31;101596.18;;;19.29;53.80
60487;BME280;46327;39.866;-0.072;2022-12-07T00:29:01;101592.64;;;19.45;53.46
60487;BME280;46327;39.866;-0.072;2022-12-07T00:31:31;101592.55;;;19.07;53.64
60487;BME280;46327;39.866;-0.072;2022-12-07T00:33:59;101587.15;;;19.04;53.70
60487;BME280;46327;39.866;-0.072;2022-12-07T00:36:27;101588.08;;;19.30;53.68
60487;BME280;46327;39.866;-0.072;2022-12-07T00:38:55;101588.20;;;19.32;53.64
60487;BME280;46327;39.866;-0.072;2022-12-07T00:41:25;101589.79;;;19.11;53.52
60487;BME280;46327;39.866;-0.072;2022-12-07T00:43:53;101591.07;;;19.09;53.51
60487;BME280;46327;39.866;-0.072;2022-12-07T00:46:22;101588.81;;;19.47;53.30
60487;BME280;46327;39.866;-0.072;2022-12-07T00:48:53;101589.40;;;19.41;53.35
60487;BME280;46327;39.866;-0.072;2022-12-07T00:51:23;101589.85;;;19.06;53.53
60487;BME280;46327;39.866;-0.072;2022-12-07T00:53:52;101587.45;;;19.14;53.37
60487;BME280;46327;39.866;-0.072;2022-12-07T00:56:21;101584.01;;;19.38;53.37
60487;BME280;46327;39.866;-0.072;2022-12-07T00:58:53;101580.09;;;19.09;53.42
60487;BME280;46327;39.866;-0.072;2022-12-07T01:01:21;101577.34;;;19.13;53.33
60487;BME280;46327;39.866;-0.072;2022-12-07T01:03:48;101577.73;;;19.10;53.36
60487;BME280;46327;39.866;-0.072;2022-12-07T01:06:16;101573.56;;;19.05;53.42
60487;BME280;46327;39.866;-0.072;2022-12-07T01:08:44;101571.80;;;19.18;53.17
60487;BME280;46327;39.866;-0.072;2022-12-07T01:11:14;101570.77;;;19.16;53.18
60487;BME280;46327;39.866;-0.072;2022-12-07T01:13:42;101570.77;;;19.14;53.18
60487;BME280;46327;39.866;-0.072;2022-12-07T01:16:12;101570.34;;;19.12;53.24
60487;BME280;46327;39.866;-0.072;2022-12-07T01:18:41;101568.15;;;19.33;53.32
60487;BME280;46327;39.866;-0.072;2022-12-07T01:21:11;101567.77;;;19.33;53.30
60487;BME280;46327;39.866;-0.072;2022-12-07T01:23:39;101570.05;;;19.34;53.30
60487;BME280;46327;39.866;-0.072;2022-12-07T01:26:10;101568.50;;;19.37;53.25
60487;BME280;46327;39.866;-0.072;2022-12-07T01:28:38;101569.78;;;19.36;53.22
60487;BME280;46327;39.866;-0.072;2022-12-07T01:31:09;101571.41;;;19.45;53.05
60487;BME280;46327;39.866;-0.072;2022-12-07T01:33:38;101573.52;;;19.42;53.09
60487;BME280;46327;39.866;-0.072;2022-12-07T01:36:07;101575.83;;;19.38;53.12
60487;BME280;46327;39.866;-0.072;2022-12-07T01:38:35;101571.62;;;19.43;53.03
60487;BME280;46327;39.866;-0.072;2022-12-07T01:41:03;101574.41;;;19.15;53.03
60487;BME280;46327;39.866;-0.072;2022-12-07T01:43:32;101577.72;;;19.11;53.08
60487;BME280;46327;39.866;-0.072;2022-12-07T01:46:01;101577.23;;;19.09;53.09
60487;BME280;46327;39.866;-0.072;2022-12-07T01:48:32;101573.71;;;19.19;52.92
60487;BME280;46327;39.866;-0.072;2022-12-07T01:51:05;101571.88;;;19.19;52.89
60487;BME280;46327;39.866;-0.072;2022-12-07T01:53:37;101569.90;;;19.20;52.87
60487;BME280;46327;39.866;-0.072;2022-12-07T01:56:06;101567.26;;;19.50;52.80
60487;BME280;46327;39.866;-0.072;2022-12-07T01:58:34;101567.68;;;19.27;52.71
60487;BME280;46327;39.866;-0.072;2022-12-07T02:01:03;101570.37;;;19.45;52.86
60487;BME280;46327;39.866;-0.072;2022-12-07T02:03:34;101570.75;;;19.45;52.87
60487;BME280;46327;39.866;-0.072;2022-12-07T02:06:04;101570.96;;;19.34;52.59
60487;BME280;46327;39.866;-0.072;2022-12-07T02:08:32;101565.92;;;19.77;52.65
60487;BME280;46327;39.866;-0.072;2022-12-07T02:11:00;101564.98;;;19.48;52.81
60487;BME280;46327;39.866;-0.072;2022-12-07T02:13:31;101564.50;;;19.48;52.75
60487;BME280;46327;39.866;-0.072;2022-12-07T02:16:09;101560.59;;;19.52;52.69
60487;BME280;46327;39.866;-0.072;2022-12-07T02:18:54;101563.92;;;19.48;52.76
60487;BME280;46327;39.866;-0.072;2022-12-07T02:21:30;101561.64;;;19.47;52.75
60487;BME280;46327;39.866;-0.072;2022-12-07T02:24:30;101559.60;;;19.16;52.85
60487;BME280;46327;39.866;-0.072;2022-12-07T02:27:17;101554.35;;;19.01;52.67
60487;BME280;46327;39.866;-0.072;2022-12-07T02:29:55;101555.02;;;19.15;52.78
60487;BME280;46327;39.866;-0.072;2022-12-07T02:32:28;101551.44;;;19.31;52.44
60487;BME280;46327;39.866;-0.072;2022-12-07T02:35:07;101557.46;;;19.44;52.71
60487;BME280;46327;39.866;-0.072;2022-12-07T02:37:39;101556.81;;;19.18;52.67
60487;BME280;46327;39.866;-0.072;2022-12-07T02:40:12;101552.80;;;19.42;52.70
60487;BME280;46327;39.866;-0.072;2022-12-07T02:42:46;101552.38;;;19.40;52.72
60487;BME280;46327;39.866;-0.072;2022-12-07T02:45:15;101550.63;;;19.47;52.62
60487;BME280;46327;39.866;-0.072;2022-12-07T02:47:45;101551.79;;;19.50;52.50
60487;BME280;46327;39.866;-0.072;2022-12-07T02:50:13;101555.88;;;19.07;52.80
60487;BME280;46327;39.866;-0.072;2022-12-07T02:52:40;101551.94;;;19.35;52.30
60487;BME280;46327;39.866;-0.072;2022-12-07T02:55:08;101555.19;;;19.49;52.51
60487;BME280;46327;39.866;-0.072;2022-12-07T02:57:47;101554.85;;;19.17;52.62
60487;BME280;46327;39.866;-0.072;2022-12-07T03:00:19;101549.78;;;19.23;52.47
60487;BME280;46327;39.866;-0.072;2022-12-07T03:02:52;101547.83;;;18.99;52.51
60487;BME280;46327;39.866;-0.072;2022-12-07T03:05:33;101546.93;;;19.40;52.65
60487;BME280;46327;39.866;-0.072;2022-12-07T03:08:10;101547.35;;;19.11;52.68
60487;BME280;46327;39.866;-0.072;2022-12-07T03:10:47;101545.13;;;19.14;52.59
60487;BME280;46327;39.866;-0.072;2022-12-07T03:13:23;101544.27;;;19.19;52.52
60487;BME280;46327;39.866;-0.072;2022-12-07T03:15:57;101541.05;;;19.50;52.40
60487;BME280;46327;39.866;-0.072;2022-12-07T03:18:31;101541.84;;;19.28;52.33
60487;BME280;46327;39.866;-0.072;2022-12-07T03:21:04;101542.27;;;19.50;52.39
60487;BME280;46327;39.866;-0.072;2022-12-07T03:23:34;101538.05;;;19.22;52.40
60487;BME280;46327;39.866;-0.072;2022-12-07T03:26:03;101532.74;;;19.16;52.45
60487;BME280;46327;39.866;-0.072;2022-12-07T03:28:36;101530.58;;;19.22;52.37
60487;BME280;46327;39.866;-0.072;2022-12-07T03:31:10;101530.29;;;19.44;52.40
60487;BME280;46327;39.866;-0.072;2022-12-07T03:33:42;101526.96;;;19.21;52.34
60487;BME280;46327;39.866;-0.072;2022-12-07T03:36:15;101520.83;;;19.12;52.50
60487;BME280;46327;39.866;-0.072;2022-12-07T03:38:47;101516.65;;;19.16;52.42
60487;BME280;46327;39.866;-0.072;2022-12-07T03:41:23;101511.84;;;19.20;52.33
60487;BME280;46327;39.866;-0.072;2022-12-07T03:43:54;101513.99;;;19.28;52.12
60487;BME280;46327;39.866;-0.072;2022-12-07T03:46:31;101516.47;;;19.41;52.38
60487;BME280;46327;39.866;-0.072;2022-12-07T03:49:08;101515.14;;;19.16;52.34
60487;BME280;46327;39.866;-0.072;2022-12-07T03:51:43;101513.67;;;19.08;52.47
60487;BME280;46327;39.866;-0.072;2022-12-07T03:54:16;101513.45;;;19.32;51.99
60487;BME280;46327;39.866;-0.072;2022-12-07T03:56:46;101509.04;;;18.95;52.28
60487;BME280;46327;39.866;-0.072;2022-12-07T03:59:15;101506.37;;;19.20;52.20
60487;BME280;46327;39.866;-0.072;2022-12-07T04:01:43;101502.77;;;19.42;52.26
60487;BME280;46327;39.866;-0.072;2022-12-07T04:04:11;101504.55;;;18.91;52.32
60487;BME280;46327;39.866;-0.072;2022-12-07T04:06:38;101505.63;;;19.45;52.18
60487;BME280;46327;39.866;-0.072;2022-12-07T04:09:05;101506.74;;;19.21;52.14
60487;BME280;46327;39.866;-0.072;2022-12-07T04:11:33;101504.79;;;19.33;52.42
60487;BME280;46327;39.866;-0.072;2022-12-07T04:14:00;101506.33;;;19.11;52.36
60487;BME280;46327;39.866;-0.072;2022-12-07T04:16:28;101503.83;;;19.13;52.30
60487;BME280;46327;39.866;-0.072;2022-12-07T04:18:56;101501.90;;;19.35;52.38
60487;BME280;46327;39.866;-0.072;2022-12-07T04:21:23;101498.23;;;19.43;52.21
60487;BME280;46327;39.866;-0.072;2022-12-07T04:23:51;101494.94;;;19.45;52.13
60487;BME280;46327;39.866;-0.072;2022-12-07T04:26:18;101491.58;;;19.10;52.28
60487;BME280;46327;39.866;-0.072;2022-12-07T04:28:46;101486.23;;;19.14;52.18
60487;BME280;46327;39.866;-0.072;2022-12-07T04:31:13;101484.45;;;19.16;52.12
60487;BME280;46327;39.866;-0.072;2022-12-07T04:33:40;101486.53;;;19.41;52.16
60487;BME280;46327;39.866;-0.072;2022-12-07T04:36:07;101487.46;;;19.13;52.19
60487;BME280;46327;39.866;-0.072;2022-12-07T04:38:35;101485.94;;;19.33;52.29
60487;BME280;46327;39.866;-0.072;2022-12-07T04:41:05;101481.32;;;19.42;52.10
60487;BME280;46327;39.866;-0.072;2022-12-07T04:43:35;101478.85;;;19.17;52.09
60487;BME280;46327;39.866;-0.072;2022-12-07T04:46:02;101476.16;;;19.20;51.99
60487;BME280;46327;39.866;-0.072;2022-12-07T04:48:29;101474.56;;;19.46;52.04
60487;BME280;46327;39.866;-0.072;2022-12-07T04:50:57;101472.93;;;19.47;51.99
60487;BME280;46327;39.866;-0.072;2022-12-07T04:53:26;101473.67;;;19.38;52.16
60487;BME280;46327;39.866;-0.072;2022-12-07T04:55:53;101476.21;;;19.09;52.21
60487;BME280;46327;39.866;-0.072;2022-12-07T04:58:21;101476.60;;;19.15;52.12
60487;BME280;46327;39.866;-0.072;2022-12-07T05:00:48;101478.62;;;18.97;52.04
60487;BME280;46327;39.866;-0.072;2022-12-07T05:03:15;101480.79;;;19.05;52.28
60487;BME280;46327;39.866;-0.072;2022-12-07T05:05:42;101482.59;;;18.98;51.99
60487;BME280;46327;39.866;-0.072;2022-12-07T05:08:10;101483.70;;;19.09;52.12
60487;BME280;46327;39.866;-0.072;2022-12-07T05:10:37;101482.70;;;19.51;51.88
60487;BME280;46327;39.866;-0.072;2022-12-07T05:13:05;101481.29;;;19.50;51.92
60487;BME280;46327;39.866;-0.072;2022-12-07T05:15:32;101485.14;;;19.48;51.91
60487;BME280;46327;39.866;-0.072;2022-12-07T05:18:00;101485.60;;;19.24;51.88
60487;BME280;46327;39.866;-0.072;2022-12-07T05:20:27;101484.06;;;19.16;52.07
60487;BME280;46327;39.866;-0.072;2022-12-07T05:22:55;101485.57;;;19.46;52.04
60487;BME280;46327;39.866;-0.072;2022-12-07T05:25:23;101486.01;;;19.08;52.23
60487;BME280;46327;39.866;-0.072;2022-12-07T05:27:50;101484.76;;;19.19;52.03
60487;BME280;46327;39.866;-0.072;2022-12-07T05:30:17;101482.92;;;19.16;52.06
60487;BME280;46327;39.866;-0.072;2022-12-07T05:32:45;101483.16;;;19.17;52.06
60487;BME280;46327;39.866;-0.072;2022-12-07T05:35:13;101486.57;;;19.41;52.12
60487;BME280;46327;39.866;-0.072;2022-12-07T05:37:40;101492.77;;;19.45;52.04
60487;BME280;46327;39.866;-0.072;2022-12-07T05:40:09;101495.40;;;19.40;52.15
60487;BME280;46327;39.866;-0.072;2022-12-07T05:42:37;101493.08;;;19.14;52.10
60487;BME280;46327;39.866;-0.072;2022-12-07T05:45:05;101496.10;;;19.43;52.08
60487;BME280;46327;39.866;-0.072;2022-12-07T05:47:33;101494.09;;;19.47;52.02
60487;BME280;46327;39.866;-0.072;2022-12-07T05:50:01;101492.60;;;19.18;52.01
60487;BME280;46327;39.866;-0.072;2022-12-07T05:52:28;101491.57;;;19.16;52.06
60487;BME280;46327;39.866;-0.072;2022-12-07T05:54:56;101493.15;;;19.45;52.02
60487;BME280;46327;39.866;-0.072;2022-12-07T05:57:23;101499.05;;;18.91;52.12
60487;BME280;46327;39.866;-0.072;2022-12-07T05:59:51;101500.58;;;19.05;52.20
60487;BME280;46327;39.866;-0.072;2022-12-07T06:02:18;101500.63;;;19.34;52.23
60487;BME280;46327;39.866;-0.072;2022-12-07T06:04:46;101497.02;;;19.08;52.22
60487;BME280;46327;39.866;-0.072;2022-12-07T06:07:15;101496.76;;;19.38;52.12
60487;BME280;46327;39.866;-0.072;2022-12-07T06:09:44;101499.28;;;19.09;52.18
60487;BME280;46327;39.866;-0.072;2022-12-07T06:12:12;101504.79;;;19.47;51.95
60487;BME280;46327;39.866;-0.072;2022-12-07T06:14:40;101507.95;;;19.17;52.02
60487;BME280;46327;39.866;-0.072;2022-12-07T06:17:08;101510.99;;;19.17;51.99
60487;BME280;46327;39.866;-0.072;2022-12-07T06:19:36;101511.81;;;19.44;51.98
60487;BME280;46327;39.866;-0.072;2022-12-07T06:22:04;101513.02;;;19.15;52.05
60487;BME280;46327;39.866;-0.072;2022-12-07T06:24:31;101515.88;;;19.34;52.15
60487;BME280;46327;39.866;-0.072;2022-12-07T06:26:59;101514.55;;;19.09;52.04
60487;BME280;46327;39.866;-0.072;2022-12-07T06:29:26;101515.21;;;19.13;52.06
60487;BME280;46327;39.866;-0.072;2022-12-07T06:31:53;101515.21;;;19.40;52.04
60487;BME280;46327;39.866;-0.072;2022-12-07T06:34:22;101512.95;;;19.10;52.09
60487;BME280;46327;39.866;-0.072;2022-12-07T06:36:49;101513.42;;;19.01;52.27
60487;BME280;46327;39.866;-0.072;2022-12-07T06:39:18;101514.49;;;19.12;52.07
60487;BME280;46327;39.866;-0.072;2022-12-07T06:41:46;101512.88;;;19.41;52.03
60487;BME280;46327;39.866;-0.072;2022-12-07T06:44:13;101517.98;;;19.13;52.00
60487;BME280;46327;39.866;-0.072;2022-12-07T06:46:40;101518.31;;;19.39;51.97
60487;BME280;46327;39.866;-0.072;2022-12-07T06:49:07;101523.42;;;19.33;52.11
60487;BME280;46327;39.866;-0.072;2022-12-07T06:51:35;101530.13;;;19.33;52.11
60487;BME280;46327;39.866;-0.072;2022-12-07T06:54:03;101534.29;;;19.11;52.00
60487;BME280;46327;39.866;-0.072;2022-12-07T06:56:30;101532.50;;;19.39;51.98
60487;BME280;46327;39.866;-0.072;2022-12-07T06:58:57;101534.90;;;19.34;52.08
60487;BME280;46327;39.866;-0.072;2022-12-07T07:01:25;101533.73;;;19.44;51.89
60487;BME280;46327;39.866;-0.072;2022-12-07T07:03:52;101536.67;;;19.33;52.03
60487;BME280;46327;39.866;-0.072;2022-12-07T07:06:20;101534.65;;;19.12;51.93
60487;BME280;46327;39.866;-0.072;2022-12-07T07:08:47;101532.88;;;19.10;51.96
60487;BME280;46327;39.866;-0.072;2022-12-07T07:11:14;101528.35;;;19.23;51.74
60487;BME280;46327;39.866;-0.072;2022-12-07T07:13:42;101528.93;;;19.08;51.93
60487;BME280;46327;39.866;-0.072;2022-12-07T07:16:10;101532.27;;;18.96;52.51
60487;BME280;46327;39.866;-0.072;2022-12-07T07:18:37;101532.80;;;18.95;52.55
60487;BME280;46327;39.866;-0.072;2022-12-07T07:21:04;101532.87;;;18.75;52.48
60487;BME280;46327;39.866;-0.072;2022-12-07T07:23:31;101528.36;;;18.87;52.34
60487;BME280;46327;39.866;-0.072;2022-12-07T07:25:59;101532.56;;;19.23;52.32
60487;BME280;46327;39.866;-0.072;2022-12-07T07:28:26;101536.02;;;18.90;52.61
60487;BME280;46327;39.866;-0.072;2022-12-07T07:30:54;101540.20;;;19.12;52.43
60487;BME280;46327;39.866;-0.072;2022-12-07T07:33:21;101541.09;;;19.45;51.95
60487;BME280;46327;39.866;-0.072;2022-12-07T07:35:48;101536.69;;;19.56;52.10
60487;BME280;46327;39.866;-0.072;2022-12-07T07:38:15;101535.66;;;19.08;52.05
60487;BME280;46327;39.866;-0.072;2022-12-07T07:40:43;101537.94;;;19.12;52.48
60487;BME280;46327;39.866;-0.072;2022-12-07T07:43:10;101538.58;;;19.15;52.38
60487;BME280;46327;39.866;-0.072;2022-12-07T07:45:38;101532.33;;;19.37;51.95
60487;BME280;46327;39.866;-0.072;2022-12-07T07:48:06;101529.61;;;19.31;52.09
60487;BME280;46327;39.866;-0.072;2022-12-07T07:50:33;101533.19;;;19.44;51.86
60487;BME280;46327;39.866;-0.072;2022-12-07T07:53:01;101530.92;;;19.35;52.11
60487;BME280;46327;39.866;-0.072;2022-12-07T07:55:28;101529.26;;;19.40;51.89
60487;BME280;46327;39.866;-0.072;2022-12-07T07:57:55;101529.89;;;19.36;51.98
60487;BME280;46327;39.866;-0.072;2022-12-07T08:00:23;101529.37;;;19.32;52.12
60487;BME280;46327;39.866;-0.072;2022-12-07T08:02:50;101532.85;;;19.47;52.15
60487;BME280;46327;39.866;-0.072;2022-12-07T08:05:18;101527.50;;;19.22;52.52
60487;BME280;46327;39.866;-0.072;2022-12-07T08:07:45;101527.32;;;19.02;52.48
60487;BME280;46327;39.866;-0.072;2022-12-07T08:10:13;101533.30;;;19.22;52.88
60487;BME280;46327;39.866;-0.072;2022-12-07T08:12:43;101528.63;;;19.13;52.78
60487;BME280;46327;39.866;-0.072;2022-12-07T08:15:11;101527.01;;;19.23;52.77
60487;BME280;46327;39.866;-0.072;2022-12-07T08:17:39;101527.83;;;19.25;52.56
60487;BME280;46327;39.866;-0.072;2022-12-07T08:20:07;101526.27;;;19.08;52.50
60487;BME280;46327;39.866;-0.072;2022-12-07T08:22:35;101534.27;;;19.69;52.60
60487;BME280;46327;39.866;-0.072;2022-12-07T08:25:02;101535.94;;;19.20;53.06
60487;BME280;46327;39.866;-0.072;2022-12-07T08:27:29;101539.57;;;19.41;52.54
60487;BME280;46327;39.866;-0.072;2022-12-07T08:29:56;101538.34;;;19.12;52.85
60487;BME280;46327;39.866;-0.072;2022-12-07T08:32:23;101540.49;;;19.11;53.02
60487;BME280;46327;39.866;-0.072;2022-12-07T08:34:52;101539.84;;;19.24;52.71
60487;BME280;46327;39.866;-0.072;2022-12-07T08:37:19;101542.51;;;19.01;52.60
60487;BME280;46327;39.866;-0.072;2022-12-07T08:39:46;101542.86;;;19.07;52.58
60487;BME280;46327;39.866;-0.072;2022-12-07T08:42:14;101543.34;;;19.11;52.43
60487;BME280;46327;39.866;-0.072;2022-12-07T08:44:41;101546.74;;;19.37;52.47
60487;BME280;46327;39.866;-0.072;2022-12-07T08:47:10;101555.39;;;19.26;52.61
60487;BME280;46327;39.866;-0.072;2022-12-07T08:49:40;101557.57;;;19.21;52.19
60487;BME280;46327;39.866;-0.072;2022-12-07T08:52:08;101564.45;;;19.11;52.57
60487;BME280;46327;39.866;-0.072;2022-12-07T08:54:37;101566.68;;;19.29;52.55
60487;BME280;46327;39.866;-0.072;2022-12-07T08:57:05;101569.40;;;19.14;52.38
60487;BME280;46327;39.866;-0.072;2022-12-07T08:59:35;101570.42;;;19.41;52.14
60487;BME280;46327;39.866;-0.072;2022-12-07T09:02:03;101570.73;;;19.27;52.49
60487;BME280;46327;39.866;-0.072;2022-12-07T09:04:30;101574.37;;;19.17;52.71
60487;BME280;46327;39.866;-0.072;2022-12-07T09:06:57;101578.16;;;19.13;52.31
60487;BME280;46327;39.866;-0.072;2022-12-07T09:09:26;101580.15;;;19.40;52.38
60487;BME280;46327;39.866;-0.072;2022-12-07T09:11:56;101578.22;;;19.47;52.18
60487;BME280;46327;39.866;-0.072;2022-12-07T09:14:23;101575.73;;;19.27;52.44
60487;BME280;46327;39.866;-0.072;2022-12-07T09:16:50;101573.66;;;19.03;52.51
60487;BME280;46327;39.866;-0.072;2022-12-07T09:19:17;101576.99;;;19.48;52.12
60487;BME280;46327;39.866;-0.072;2022-12-07T09:21:45;101580.10;;;19.16;52.31
60487;BME280;46327;39.866;-0.072;2022-12-07T09:24:13;101584.57;;;19.18;52.24
60487;BME280;46327;39.866;-0.072;2022-12-07T09:26:41;101583.69;;;19.37;52.35
60487;BME280;46327;39.866;-0.072;2022-12-07T09:29:07;101579.67;;;19.12;52.35
60487;BME280;46327;39.866;-0.072;2022-12-07T09:31:37;101577.45;;;19.72;52.14
60487;BME280;46327;39.866;-0.072;2022-12-07T09:34:05;101577.32;;;19.17;52.23
60487;BME280;46327;39.866;-0.072;2022-12-07T09:36:32;101576.16;;;19.25;52.03
60487;BME280;46327;39.866;-0.072;2022-12-07T09:38:59;101579.31;;;19.52;51.95
60487;BME280;46327;39.866;-0.072;2022-12-07T09:41:28;101578.10;;;19.62;52.23
60487;BME280;46327;39.866;-0.072;2022-12-07T09:44:03;101579.34;;;19.32;52.33
60487;BME280;46327;39.866;-0.072;2022-12-07T09:46:34;101577.13;;;19.11;52.36
60487;BME280;46327;39.866;-0.072;2022-12-07T09:49:02;101575.04;;;19.50;51.92
60487;BME280;46327;39.866;-0.072;2022-12-07T09:51:31;101574.74;;;19.68;51.61
60487;BME280;46327;39.866;-0.072;2022-12-07T09:53:59;101578.66;;;19.43;52.04
60487;BME280;46327;39.866;-0.072;2022-12-07T09:56:29;101575.76;;;19.37;52.13
60487;BME280;46327;39.866;-0.072;2022-12-07T09:58:59;101571.67;;;19.29;51.91
60487;BME280;46327;39.866;-0.072;2022-12-07T10:01:29;101577.97;;;19.19;51.90
60487;BME280;46327;39.866;-0.072;2022-12-07T10:04:05;101578.95;;;19.57;52.14
60487;BME280;46327;39.866;-0.072;2022-12-07T10:06:36;101577.26;;;19.49;51.92
60487;BME280;46327;39.866;-0.072;2022-12-07T10:09:10;101578.03;;;19.62;51.64
60487;BME280;46327;39.866;-0.072;2022-12-07T10:12:00;101580.07;;;19.35;52.27
60487;BME280;46327;39.866;-0.072;2022-12-07T10:14:31;101580.14;;;18.98;52.52
60487;BME280;46327;39.866;-0.072;2022-12-07T10:16:59;101574.02;;;19.37;52.17
60487;BME280;46327;39.866;-0.072;2022-12-07T10:19:28;101567.80;;;19.05;51.91
60487;BME280;46327;39.866;-0.072;2022-12-07T10:22:04;101565.06;;;19.20;52.09
60487;BME280;46327;39.866;-0.072;2022-12-07T10:24:34;101564.58;;;19.30;52.05
60487;BME280;46327;39.866;-0.072;2022-12-07T10:27:02;101564.85;;;19.34;52.33
60487;BME280;46327;39.866;-0.072;2022-12-07T10:29:32;101564.62;;;19.17;52.27
60487;BME280;46327;39.866;-0.072;2022-12-07T10:32:03;101559.14;;;19.38;51.90
60487;BME280;46327;39.866;-0.072;2022-12-07T10:34:32;101554.93;;;19.35;52.37
60487;BME280;46327;39.866;-0.072;2022-12-07T10:37:17;101550.99;;;19.33;52.01
60487;BME280;46327;39.866;-0.072;2022-12-07T10:39:46;101545.42;;;19.23;52.22
60487;BME280;46327;39.866;-0.072;2022-12-07T10:42:18;101543.96;;;19.25;52.15
60487;BME280;46327;39.866;-0.072;2022-12-07T10:44:46;101542.33;;;19.45;51.82
60487;BME280;46327;39.866;-0.072;2022-12-07T10:47:24;101539.39;;;19.54;51.59
60487;BME280;46327;39.866;-0.072;2022-12-07T10:50:16;101530.26;;;19.37;51.97
60487;BME280;46327;39.866;-0.072;2022-12-07T10:52:55;101520.95;;;19.25;52.19
60487;BME280;46327;39.866;-0.072;2022-12-07T10:55:34;101515.47;;;19.57;51.97
60487;BME280;46327;39.866;-0.072;2022-12-07T10:58:24;101512.21;;;19.70;51.69
60487;BME280;46327;39.866;-0.072;2022-12-07T11:01:02;101509.44;;;19.47;52.16
60487;BME280;46327;39.866;-0.072;2022-12-07T11:03:55;101504.43;;;19.50;51.82
60487;BME280;46327;39.866;-0.072;2022-12-07T11:06:34;101497.16;;;19.85;51.62
60487;BME280;46327;39.866;-0.072;2022-12-07T11:09:26;101496.69;;;19.48;52.12
60487;BME280;46327;39.866;-0.072;2022-12-07T11:12:01;101492.37;;;19.40;51.87
60487;BME280;46327;39.866;-0.072;2022-12-07T11:14:36;101490.85;;;19.28;52.28
60487;BME280;46327;39.866;-0.072;2022-12-07T11:17:12;101493.04;;;19.32;52.14
60487;BME280;46327;39.866;-0.072;2022-12-07T11:19:50;101490.87;;;19.57;52.17
60487;BME280;46327;39.866;-0.072;2022-12-07T11:22:28;101488.18;;;19.70;51.90
60487;BME280;46327;39.866;-0.072;2022-12-07T11:25:07;101483.11;;;19.35;52.03
60487;BME280;46327;39.866;-0.072;2022-12-07T11:27:45;101480.29;;;19.30;52.15
60487;BME280;46327;39.866;-0.072;2022-12-07T11:30:19;101480.27;;;19.30;52.63
60487;BME280;46327;39.866;-0.072;2022-12-07T11:32:56;101475.90;;;19.28;52.52
60487;BME280;46327;39.866;-0.072;2022-12-07T11:35:34;101471.02;;;19.01;52.64
60487;BME280;46327;39.866;-0.072;2022-12-07T11:38:10;101471.23;;;19.45;52.65
60487;BME280;46327;39.866;-0.072;2022-12-07T11:40:38;101468.70;;;19.68;52.19
60487;BME280;46327;39.866;-0.072;2022-12-07T11:43:15;101463.87;;;19.32;52.39
60487;BME280;46327;39.866;-0.072;2022-12-07T11:45:47;101465.44;;;19.33;52.34
60487;BME280;46327;39.866;-0.072;2022-12-07T11:48:24;101461.42;;;19.27;52.68
60487;BME280;46327;39.866;-0.072;2022-12-07T11:50:58;101456.73;;;19.06;53.16
60487;BME280;46327;39.866;-0.072;2022-12-07T11:53:31;101457.01;;;18.97;53.23
60487;BME280;46327;39.866;-0.072;2022-12-07T11:56:07;101455.03;;;19.39;52.91
60487;BME280;46327;39.866;-0.072;2022-12-07T11:58:44;101451.30;;;18.98;53.24
60487;BME280;46327;39.866;-0.072;2022-12-07T12:01:24;101453.15;;;19.77;52.16
60487;BME280;46327;39.866;-0.072;2022-12-07T12:03:58;101452.93;;;19.39;52.27
60487;BME280;46327;39.866;-0.072;2022-12-07T12:06:28;101449.15;;;19.46;52.76
60487;BME280;46327;39.866;-0.072;2022-12-07T12:09:01;101446.59;;;19.10;53.41
60487;BME280;46327;39.866;-0.072;2022-12-07T12:11:46;101444.40;;;18.97;53.60
60487;BME280;46327;39.866;-0.072;2022-12-07T12:14:32;101441.30;;;19.19;53.43
60487;BME280;46327;39.866;-0.072;2022-12-07T12:17:20;101435.70;;;19.31;53.27
60487;BME280;46327;39.866;-0.072;2022-12-07T12:20:01;101431.92;;;19.60;53.11
60487;BME280;46327;39.866;-0.072;2022-12-07T12:22:36;101433.55;;;19.78;52.49
60487;BME280;46327;39.866;-0.072;2022-12-07T12:25:07;101431.07;;;19.79;52.31
60487;BME280;46327;39.866;-0.072;2022-12-07T12:27:40;101424.28;;;19.50;52.71
60487;BME280;46327;39.866;-0.072;2022-12-07T12:30:29;101421.30;;;19.67;52.77
60487;BME280;46327;39.866;-0.072;2022-12-07T12:33:04;101419.97;;;19.70;52.25
60487;BME280;46327;39.866;-0.072;2022-12-07T12:35:35;101413.82;;;19.48;52.60
60487;BME280;46327;39.866;-0.072;2022-12-07T12:38:48;101407.20;;;19.66;52.73
60487;BME280;46327;39.866;-0.072;2022-12-07T12:41:55;101405.83;;;19.85;52.41
60487;BME280;46327;39.866;-0.072;2022-12-07T12:44:41;101398.74;;;19.80;52.53
60487;BME280;46327;39.866;-0.072;2022-12-07T12:48:03;101394.60;;;19.69;52.35
60487;BME280;46327;39.866;-0.072;2022-12-07T12:50:32;101389.32;;;19.79;52.53
60487;BME280;46327;39.866;-0.072;2022-12-07T12:53:03;101384.14;;;19.83;52.40
60487;BME280;46327;39.866;-0.072;2022-12-07T12:56:37;101380.15;;;19.64;52.25
60487;BME280;46327;39.866;-0.072;2022-12-07T12:59:23;101377.89;;;19.59;52.40
60487;BME280;46327;39.866;-0.072;2022-12-07T13:01:54;101375.22;;;19.76;52.52